Time;durP1;ratioP1;P1;durP2;ratioP2;P2;SDS_P1;SDS_P2;PMS_P1;PMS_P2;Temp;Humidity;BMP_temperature;BMP_pressure;BME280_temperature;BME280_humidity;BME280_pressure;Samples;Min_cycle;Max_cycle;Signal;HPM_P1;HPM_P2
2021/10/13 00:00:50;;;;;;;2.77;2.03;;;5.20;99.90;;;;;;4984514;28;20230;-75
2021/10/13 00:03:16;;;;;;;2.20;2.00;;;5.30;99.90;;;;;;4984143;28;20226;-76
2021/10/13 00:05:41;;;;;;;4.13;2.60;;;5.30;99.90;;;;;;4984484;28;20211;-75
2021/10/13 00:08:07;;;;;;;4.13;2.93;;;5.50;99.90;;;;;;4984309;28;20650;-76
2021/10/13 00:10:32;;;;;;;2.77;2.20;;;5.60;99.90;;;;;;4984378;28;20279;-75
2021/10/13 00:12:58;;;;;;;2.20;2.00;;;5.60;99.90;;;;;;4982666;28;20703;-75
2021/10/13 00:15:24;;;;;;;2.43;2.23;;;5.70;99.90;;;;;;4984691;28;20204;-75
2021/10/13 00:17:49;;;;;;;3.07;2.10;;;5.80;99.90;;;;;;4983783;28;20184;-75
2021/10/13 00:20:15;;;;;;;2.70;2.20;;;5.90;99.90;;;;;;4984117;28;20204;-75
2021/10/13 00:22:40;;;;;;;3.07;2.37;;;6.00;99.90;;;;;;4984026;28;20188;-76
2021/10/13 00:25:07;;;;;;;2.50;2.20;;;6.00;99.90;;;;;;4984119;28;20227;-75
2021/10/13 00:27:32;;;;;;;2.87;2.60;;;5.90;99.90;;;;;;4984125;28;20254;-75
2021/10/13 00:29:58;;;;;;;5.13;2.70;;;5.90;99.90;;;;;;4984188;28;20219;-75
2021/10/13 00:32:24;;;;;;;3.50;2.80;;;6.00;99.90;;;;;;4982301;28;20208;-72
2021/10/13 00:34:49;;;;;;;3.73;2.57;;;6.00;99.90;;;;;;4986178;28;20203;-76
2021/10/13 00:37:16;;;;;;;4.10;2.40;;;6.10;99.90;;;;;;4988401;28;20291;-75
2021/10/13 00:39:42;;;;;;;3.23;2.73;;;6.20;99.90;;;;;;4988387;28;20287;-73
2021/10/13 00:42:07;;;;;;;4.23;2.43;;;6.20;99.90;;;;;;4988394;28;20188;-75
2021/10/13 00:44:33;;;;;;;3.53;2.60;;;6.30;99.90;;;;;;4988976;28;20677;-75
2021/10/13 00:47:00;;;;;;;5.53;3.10;;;6.30;99.90;;;;;;4987788;28;20184;-76
2021/10/13 00:49:26;;;;;;;5.03;3.30;;;6.40;99.90;;;;;;4988238;28;20307;-75
2021/10/13 00:51:52;;;;;;;3.67;2.93;;;6.40;99.90;;;;;;4987299;28;20263;-75
2021/10/13 00:54:19;;;;;;;3.60;2.97;;;6.40;99.90;;;;;;5002998;28;20222;-75
2021/10/13 00:56:44;;;;;;;4.30;2.83;;;6.30;99.90;;;;;;4987281;28;20846;-75
2021/10/13 00:59:10;;;;;;;3.10;2.80;;;6.40;99.90;;;;;;4988082;28;20276;-76
2021/10/13 01:02:04;;;;;;;7.80;4.20;;;6.50;99.90;;;;;;4987297;28;20858;-76
2021/10/13 01:04:58;;;;;;;5.20;3.70;;;6.50;99.90;;;;;;4977318;28;20204;-75
2021/10/13 01:07:47;;;;;;;8.10;4.77;;;6.60;99.90;;;;;;4987268;28;20184;-75
2021/10/13 01:10:39;;;;;;;6.23;4.17;;;6.60;99.90;;;;;;5001953;28;20204;-75
2021/10/13 01:13:38;;;;;;;6.27;4.30;;;6.70;99.90;;;;;;4987219;28;20705;-75
2021/10/13 01:16:42;;;;;;;6.93;5.17;;;6.70;99.90;;;;;;4987290;28;20208;-76
2021/10/13 01:19:40;;;;;;;6.93;5.37;;;6.70;99.90;;;;;;4987745;28;20838;-75
2021/10/13 01:22:41;;;;;;;8.63;5.50;;;6.70;99.90;;;;;;4982999;28;20200;-76
2021/10/13 01:25:45;;;;;;;10.00;6.23;;;6.80;99.90;;;;;;4987735;28;20222;-75
2021/10/13 01:28:13;;;;;;;9.77;6.60;;;6.80;99.90;;;;;;4986135;28;20207;-76
2021/10/13 01:30:53;;;;;;;10.27;7.33;;;6.80;99.90;;;;;;4987628;28;20203;-75
2021/10/13 01:33:25;;;;;;;13.57;7.57;;;6.90;99.90;;;;;;4986582;28;20282;-75
2021/10/13 01:35:54;;;;;;;12.63;7.97;;;7.00;99.90;;;;;;4987695;28;20617;-75
2021/10/13 01:38:25;;;;;;;14.23;9.07;;;6.90;99.90;;;;;;5002004;28;20709;-75
2021/10/13 01:40:54;;;;;;;13.93;7.17;;;6.90;99.90;;;;;;4987540;28;20180;-75
2021/10/13 01:43:21;;;;;;;12.30;7.87;;;7.00;99.90;;;;;;4986778;28;20366;-75
2021/10/13 01:45:50;;;;;;;11.30;7.53;;;6.90;99.90;;;;;;4986407;28;20261;-75
2021/10/13 01:48:17;;;;;;;12.73;7.83;;;6.90;99.90;;;;;;4986662;28;20192;-75
2021/10/13 01:50:46;;;;;;;13.90;7.83;;;6.90;99.90;;;;;;4986976;28;20667;-75
2021/10/13 01:53:15;;;;;;;12.73;8.83;;;6.90;99.90;;;;;;4987002;28;20281;-73
2021/10/13 01:55:42;;;;;;;12.73;8.63;;;7.00;99.90;;;;;;4986972;28;20204;-74
2021/10/13 01:58:10;;;;;;;12.67;8.33;;;6.80;99.90;;;;;;4986574;28;20263;-74
2021/10/13 02:00:36;;;;;;;12.87;8.67;;;6.90;99.90;;;;;;4985827;28;20215;-75
2021/10/13 02:03:06;;;;;;;14.97;9.33;;;6.90;99.90;;;;;;4986314;28;20191;-75
2021/10/13 02:05:33;;;;;;;12.77;8.87;;;6.90;99.90;;;;;;4987134;28;20206;-75
2021/10/13 02:07:59;;;;;;;14.00;8.47;;;6.90;99.90;;;;;;4986429;28;20643;-75
2021/10/13 02:10:26;;;;;;;16.10;9.00;;;6.90;99.90;;;;;;4986703;28;20180;-75
2021/10/13 02:12:55;;;;;;;13.07;8.40;;;6.90;99.90;;;;;;4985972;28;20204;-75
2021/10/13 02:15:22;;;;;;;14.93;8.90;;;6.90;99.90;;;;;;4986712;28;20203;-75
2021/10/13 02:17:51;;;;;;;14.03;8.13;;;6.90;99.90;;;;;;4984622;28;20275;-75
2021/10/13 02:20:18;;;;;;;16.87;9.37;;;6.80;99.90;;;;;;4985688;28;20211;-75
2021/10/13 02:22:53;;;;;;;14.33;8.60;;;6.80;99.90;;;;;;5000829;28;20636;-75
2021/10/13 02:25:19;;;;;;;12.43;8.80;;;6.80;99.90;;;;;;4986189;28;20215;-75
2021/10/13 02:27:50;;;;;;;14.57;9.17;;;6.90;99.90;;;;;;4985844;28;20192;-75
2021/10/13 02:30:16;;;;;;;12.83;9.20;;;6.80;99.90;;;;;;4984989;28;20563;-76
2021/10/13 02:32:42;;;;;;;15.27;9.03;;;6.80;99.90;;;;;;4983715;28;20211;-75
2021/10/13 02:35:09;;;;;;;12.73;8.90;;;6.80;99.90;;;;;;4984922;28;20208;-75
2021/10/13 02:37:34;;;;;;;15.43;9.40;;;6.80;99.90;;;;;;4985776;28;20199;-75
2021/10/13 02:40:00;;;;;;;15.23;9.50;;;6.90;99.90;;;;;;4985839;28;20279;-75
2021/10/13 02:42:26;;;;;;;13.50;8.83;;;6.90;99.90;;;;;;4984314;28;20246;-75
2021/10/13 02:44:52;;;;;;;13.33;8.83;;;6.90;99.90;;;;;;4984549;28;20278;-75
2021/10/13 02:47:32;;;;;;;12.90;9.37;;;6.90;99.90;;;;;;4985319;28;20188;-76
2021/10/13 02:50:42;;;;;;;16.53;9.50;;;6.90;99.90;;;;;;4985397;28;20246;-75
2021/10/13 02:53:14;;;;;;;12.23;8.70;;;7.00;99.90;;;;;;4961958;28;20315;-76
2021/10/13 02:55:59;;;;;;;15.63;9.77;;;6.90;99.90;;;;;;4984818;28;20319;-75
2021/10/13 02:58:40;;;;;;;13.10;8.80;;;6.90;99.90;;;;;;4985300;28;20241;-76
2021/10/13 03:01:09;;;;;;;13.37;9.27;;;6.90;99.90;;;;;;4984800;28;20239;-75
2021/10/13 03:03:38;;;;;;;15.77;9.93;;;6.90;99.90;;;;;;4983290;28;20199;-75
2021/10/13 03:06:04;;;;;;;16.20;10.00;;;6.90;99.90;;;;;;4983917;28;20208;-75
2021/10/13 03:08:33;;;;;;;15.30;9.40;;;6.90;99.90;;;;;;4985107;28;20189;-75
2021/10/13 03:11:00;;;;;;;15.97;9.87;;;6.80;99.90;;;;;;4984368;28;20200;-76
2021/10/13 03:13:31;;;;;;;18.70;10.83;;;6.80;99.90;;;;;;4983437;28;20270;-76
2021/10/13 03:15:58;;;;;;;15.40;10.40;;;6.80;99.90;;;;;;4982924;28;20208;-75
2021/10/13 03:18:25;;;;;;;17.50;10.83;;;6.90;99.90;;;;;;4984188;28;20350;-76
2021/10/13 03:20:52;;;;;;;14.47;10.60;;;6.90;99.90;;;;;;4984844;28;20188;-75
2021/10/13 03:23:19;;;;;;;17.73;10.90;;;6.90;99.90;;;;;;4984429;28;20188;-75
2021/10/13 03:25:45;;;;;;;14.40;10.43;;;6.90;99.90;;;;;;4983851;28;20761;-76
2021/10/13 03:28:14;;;;;;;13.60;9.37;;;6.90;99.90;;;;;;4984272;28;20275;-75
2021/10/13 03:30:42;;;;;;;15.60;9.63;;;6.90;99.90;;;;;;4982846;28;20286;-76
2021/10/13 03:33:08;;;;;;;13.80;8.47;;;6.80;99.90;;;;;;4984849;28;20204;-75
2021/10/13 03:35:34;;;;;;;15.17;9.40;;;6.90;99.90;;;;;;4984190;28;20472;-76
2021/10/13 03:38:04;;;;;;;13.77;9.67;;;6.90;99.90;;;;;;4984096;28;20472;-76
2021/10/13 03:40:30;;;;;;;13.97;9.23;;;7.00;99.90;;;;;;4999942;28;20184;-75
2021/10/13 03:42:56;;;;;;;16.77;10.23;;;7.00;99.90;;;;;;4985119;28;20647;-76
2021/10/13 03:45:22;;;;;;;17.93;9.87;;;7.00;99.90;;;;;;4985722;28;20266;-75
2021/10/13 03:47:49;;;;;;;14.10;9.37;;;6.90;99.90;;;;;;4985348;28;20267;-76
2021/10/13 03:50:16;;;;;;;15.70;9.40;;;6.90;99.90;;;;;;4985670;28;20190;-75
2021/10/13 03:52:42;;;;;;;19.20;10.40;;;6.90;99.90;;;;;;4984947;28;20208;-75
2021/10/13 03:55:11;;;;;;;19.23;10.30;;;6.90;99.90;;;;;;4985366;28;20203;-76
2021/10/13 03:57:36;;;;;;;19.63;11.47;;;6.80;99.90;;;;;;4985077;28;20186;-75
2021/10/13 04:00:07;;;;;;;20.10;10.67;;;6.80;99.90;;;;;;4985424;28;20180;-75
2021/10/13 04:02:33;;;;;;;18.67;11.13;;;6.80;99.90;;;;;;4985283;28;20173;-76
2021/10/13 04:04:59;;;;;;;23.00;12.00;;;6.80;99.90;;;;;;4985203;28;20204;-76
2021/10/13 04:07:24;;;;;;;20.37;11.17;;;6.80;99.90;;;;;;4984775;28;20234;-76
2021/10/13 04:09:50;;;;;;;22.93;11.43;;;6.90;99.90;;;;;;4984770;28;20184;-76
2021/10/13 04:12:16;;;;;;;23.73;11.40;;;6.80;99.90;;;;;;4984669;28;20216;-76
2021/10/13 04:14:42;;;;;;;24.20;11.20;;;6.90;99.90;;;;;;4985436;28;20198;-76
2021/10/13 04:17:08;;;;;;;23.57;12.10;;;7.00;99.90;;;;;;4985031;28;20643;-76
2021/10/13 04:19:34;;;;;;;27.27;12.80;;;6.90;99.90;;;;;;4983957;28;20238;-75
2021/10/13 04:21:59;;;;;;;25.20;11.90;;;6.90;99.90;;;;;;4984372;28;20180;-74
2021/10/13 04:24:25;;;;;;;23.37;12.53;;;6.90;99.90;;;;;;4985304;28;20215;-76
2021/10/13 04:26:51;;;;;;;24.90;12.60;;;7.00;99.90;;;;;;4984681;28;20275;-76
2021/10/13 04:29:17;;;;;;;25.50;12.27;;;7.00;99.90;;;;;;4985279;28;20275;-76
2021/10/13 04:31:42;;;;;;;26.23;12.67;;;7.00;99.90;;;;;;4984495;28;20585;-76
2021/10/13 04:34:08;;;;;;;28.63;14.17;;;7.00;99.90;;;;;;4985417;28;20211;-76
2021/10/13 04:36:34;;;;;;;30.33;14.23;;;6.90;99.90;;;;;;4984286;28;20220;-75
2021/10/13 04:38:59;;;;;;;30.43;15.80;;;7.00;99.90;;;;;;4984766;28;20553;-76
2021/10/13 04:41:25;;;;;;;24.27;13.53;;;7.00;99.90;;;;;;4984694;28;20242;-76
2021/10/13 04:43:50;;;;;;;21.57;11.97;;;6.90;99.90;;;;;;4984550;28;20283;-76
2021/10/13 04:46:16;;;;;;;22.53;12.47;;;6.90;99.90;;;;;;4984927;28;20204;-76
2021/10/13 04:48:41;;;;;;;21.90;12.03;;;7.00;99.90;;;;;;4983738;28;21174;-76
2021/10/13 04:51:07;;;;;;;21.90;11.50;;;7.00;99.90;;;;;;4984902;28;20188;-76
2021/10/13 04:53:32;;;;;;;24.47;12.10;;;6.90;99.90;;;;;;4984289;28;20219;-76
2021/10/13 04:55:58;;;;;;;23.83;11.80;;;6.90;99.90;;;;;;4983986;28;20196;-75
2021/10/13 04:58:24;;;;;;;22.17;11.63;;;6.90;99.90;;;;;;4984595;28;20215;-76
2021/10/13 05:00:49;;;;;;;24.23;12.23;;;6.90;99.90;;;;;;4985195;28;20191;-75
2021/10/13 05:03:15;;;;;;;24.03;12.17;;;6.90;99.90;;;;;;4984062;28;20188;-76
2021/10/13 05:05:40;;;;;;;24.50;12.13;;;6.90;99.90;;;;;;4985082;28;20215;-75
2021/10/13 05:08:06;;;;;;;26.07;11.67;;;6.90;99.90;;;;;;4984464;28;20199;-75
2021/10/13 05:10:32;;;;;;;24.57;13.03;;;6.90;99.90;;;;;;4985151;28;20195;-76
2021/10/13 05:12:58;;;;;;;24.40;12.27;;;6.90;99.90;;;;;;4982419;28;20208;-75
2021/10/13 05:15:24;;;;;;;24.40;13.40;;;6.90;99.90;;;;;;4985373;28;20203;-75
2021/10/13 05:17:49;;;;;;;25.50;13.23;;;7.00;99.90;;;;;;4984601;28;20239;-75
2021/10/13 05:20:15;;;;;;;24.90;12.97;;;7.00;99.90;;;;;;4986025;28;20301;-76
2021/10/13 05:22:41;;;;;;;21.77;11.97;;;7.10;99.90;;;;;;4986854;28;20184;-74
2021/10/13 05:25:07;;;;;;;23.73;12.90;;;7.00;99.90;;;;;;4988802;28;20207;-75
2021/10/13 05:27:32;;;;;;;21.67;12.50;;;7.10;99.90;;;;;;4988846;28;20238;-74
2021/10/13 05:29:58;;;;;;;18.50;11.53;;;7.10;99.90;;;;;;4988608;28;20188;-74
2021/10/13 05:32:24;;;;;;;23.33;12.03;;;7.00;99.90;;;;;;4989677;28;20196;-76
2021/10/13 05:34:49;;;;;;;21.63;12.27;;;7.10;99.90;;;;;;4987667;28;20212;-76
2021/10/13 05:37:15;;;;;;;23.13;12.83;;;7.10;99.90;;;;;;4988450;28;20725;-76
2021/10/13 05:39:41;;;;;;;21.53;11.77;;;7.00;99.90;;;;;;4988047;28;20184;-75
2021/10/13 05:42:06;;;;;;;22.97;13.17;;;7.10;99.90;;;;;;4987682;28;20215;-76
2021/10/13 05:44:32;;;;;;;18.57;11.87;;;7.10;99.90;;;;;;4987877;28;20701;-76
2021/10/13 05:46:57;;;;;;;19.80;11.70;;;7.00;99.90;;;;;;4987909;28;20187;-76
2021/10/13 05:49:23;;;;;;;20.07;11.40;;;7.00;99.90;;;;;;4987719;28;20327;-76
2021/10/13 05:51:49;;;;;;;18.40;10.70;;;7.00;99.90;;;;;;4987562;28;20187;-76
2021/10/13 05:54:14;;;;;;;20.43;11.73;;;7.00;99.90;;;;;;4986925;28;20211;-76
2021/10/13 05:56:40;;;;;;;21.83;11.97;;;7.10;99.90;;;;;;4987251;28;20302;-76
2021/10/13 05:59:06;;;;;;;18.07;10.17;;;7.10;99.90;;;;;;4987661;28;20264;-75
2021/10/13 06:01:31;;;;;;;15.97;9.43;;;7.10;99.90;;;;;;4985687;28;20223;-75
2021/10/13 06:03:57;;;;;;;16.03;10.20;;;7.20;99.90;;;;;;4987283;28;20184;-76
2021/10/13 06:06:22;;;;;;;17.67;10.03;;;7.20;99.90;;;;;;4987500;28;20223;-76
2021/10/13 06:08:48;;;;;;;21.53;10.87;;;7.20;99.90;;;;;;4987124;28;20192;-76
2021/10/13 06:11:14;;;;;;;17.27;10.70;;;7.30;99.90;;;;;;4987441;28;20184;-76
2021/10/13 06:13:40;;;;;;;19.13;10.17;;;7.30;99.90;;;;;;4986733;28;20211;-76
2021/10/13 06:16:13;;;;;;;14.90;9.23;;;7.20;99.90;;;;;;4987616;28;20287;-76
2021/10/13 06:18:39;;;;;;;17.40;8.73;;;7.30;99.90;;;;;;4987124;28;20657;-76
2021/10/13 06:21:05;;;;;;;15.63;9.10;;;7.30;99.90;;;;;;4987233;28;20172;-76
2021/10/13 06:23:31;;;;;;;19.90;10.30;;;7.40;99.90;;;;;;4986446;28;20211;-76
2021/10/13 06:25:57;;;;;;;18.40;10.80;;;7.40;99.90;;;;;;4987247;28;21255;-76
2021/10/13 06:28:22;;;;;;;18.03;11.57;;;7.40;99.90;;;;;;4986710;28;20192;-76
2021/10/13 06:30:48;;;;;;;17.17;11.30;;;7.50;99.90;;;;;;4986831;28;20292;-76
2021/10/13 06:33:14;;;;;;;17.47;10.43;;;7.50;99.90;;;;;;4987306;28;20204;-76
2021/10/13 06:35:39;;;;;;;13.77;9.43;;;7.60;99.90;;;;;;4988266;28;20192;-76
2021/10/13 06:38:05;;;;;;;15.87;10.10;;;7.60;99.90;;;;;;4987657;28;20647;-76
2021/10/13 06:40:30;;;;;;;16.53;9.87;;;7.70;99.90;;;;;;4986532;28;20203;-76
2021/10/13 06:42:56;;;;;;;16.17;9.67;;;7.80;99.90;;;;;;4987285;28;20623;-76
2021/10/13 06:45:22;;;;;;;17.37;10.03;;;7.80;99.90;;;;;;4986610;28;20595;-76
2021/10/13 06:47:47;;;;;;;14.90;9.73;;;7.90;99.90;;;;;;4987286;28;20255;-76
2021/10/13 06:50:13;;;;;;;15.03;9.50;;;8.00;99.90;;;;;;4987542;28;20194;-76
2021/10/13 06:52:39;;;;;;;16.33;9.57;;;8.00;99.90;;;;;;4987289;28;20274;-77
2021/10/13 06:55:06;;;;;;;14.83;9.27;;;8.00;99.90;;;;;;4986340;28;20291;-76
2021/10/13 06:57:31;;;;;;;12.60;7.83;;;8.00;99.90;;;;;;4986513;28;20287;-76
2021/10/13 06:59:57;;;;;;;14.87;8.43;;;8.10;99.90;;;;;;4987034;28;21185;-77
2021/10/13 07:02:23;;;;;;;11.27;7.47;;;8.00;99.90;;;;;;4985855;28;20176;-76
2021/10/13 07:04:48;;;;;;;11.40;8.10;;;8.00;99.90;;;;;;4986077;28;20208;-77
2021/10/13 07:07:14;;;;;;;11.47;7.73;;;8.10;99.90;;;;;;4983168;28;20184;-76
2021/10/13 07:09:40;;;;;;;13.10;8.07;;;8.10;99.90;;;;;;4984228;28;20180;-80
2021/10/13 07:12:05;;;;;;;10.83;7.77;;;8.20;99.90;;;;;;4983465;28;20200;-80
2021/10/13 07:14:31;;;;;;;11.27;7.00;;;8.20;99.90;;;;;;4984616;28;20184;-77
2021/10/13 07:16:57;;;;;;;9.53;6.83;;;8.30;99.90;;;;;;4984836;28;20195;-79
2021/10/13 07:19:22;;;;;;;10.97;7.13;;;8.40;99.90;;;;;;4984083;28;20183;-76
2021/10/13 07:21:48;;;;;;;12.47;7.47;;;8.40;99.90;;;;;;4983786;28;20935;-77
2021/10/13 07:24:13;;;;;;;11.40;6.90;;;8.50;99.90;;;;;;4984394;28;20180;-76
2021/10/13 07:26:43;;;;;;;9.53;6.53;;;8.50;99.90;;;;;;4984270;28;20231;-76
2021/10/13 07:29:09;;;;;;;11.43;7.20;;;8.50;99.90;;;;;;4984157;28;20271;-76
2021/10/13 07:31:35;;;;;;;11.20;7.00;;;8.60;99.90;;;;;;4983907;28;20184;-76
2021/10/13 07:34:00;;;;;;;9.60;6.77;;;8.70;99.90;;;;;;4983690;28;20223;-76
2021/10/13 07:36:26;;;;;;;10.20;7.10;;;8.80;99.90;;;;;;4982894;28;20223;-75
2021/10/13 07:38:52;;;;;;;12.60;7.20;;;8.90;99.90;;;;;;4983795;28;20196;-76
2021/10/13 07:41:18;;;;;;;10.17;7.13;;;9.00;99.90;;;;;;4984320;28;20258;-76
2021/10/13 07:43:46;;;;;;;11.87;8.20;;;8.90;99.90;;;;;;4983261;28;20681;-76
2021/10/13 07:46:12;;;;;;;10.23;6.77;;;8.90;99.90;;;;;;4983775;28;20214;-76
2021/10/13 07:48:38;;;;;;;11.93;7.23;;;8.90;99.90;;;;;;4982384;28;20227;-76
2021/10/13 07:51:04;;;;;;;12.00;7.77;;;9.00;99.90;;;;;;4983802;28;20191;-76
2021/10/13 07:53:30;;;;;;;10.10;7.03;;;9.10;99.90;;;;;;4983519;28;20215;-76
2021/10/13 07:55:55;;;;;;;12.57;7.17;;;9.10;99.90;;;;;;4998243;28;20742;-77
2021/10/13 07:58:21;;;;;;;7.63;6.10;;;9.20;99.90;;;;;;4983526;28;20188;-76
2021/10/13 08:00:47;;;;;;;8.87;6.20;;;9.20;99.90;;;;;;4984133;28;20756;-76
2021/10/13 08:03:12;;;;;;;12.03;7.00;;;9.00;99.90;;;;;;4983277;28;20448;-76
2021/10/13 08:05:39;;;;;;;9.20;7.03;;;9.00;99.90;;;;;;4983819;28;20370;-76
2021/10/13 08:08:05;;;;;;;9.00;6.30;;;9.00;99.90;;;;;;4983239;28;20849;-77
2021/10/13 08:10:30;;;;;;;13.17;6.10;;;9.00;99.90;;;;;;4984156;28;20191;-76
2021/10/13 08:12:56;;;;;;;8.90;5.57;;;9.10;99.90;;;;;;4982993;28;20666;-76
2021/10/13 08:15:22;;;;;;;7.37;5.77;;;9.20;99.90;;;;;;4983533;28;20204;-76
2021/10/13 08:17:47;;;;;;;7.70;5.03;;;9.30;99.90;;;;;;4983222;28;20187;-76
2021/10/13 08:20:14;;;;;;;8.53;5.90;;;9.30;99.90;;;;;;4983591;28;20625;-76
2021/10/13 08:22:41;;;;;;;8.40;5.63;;;9.30;99.90;;;;;;4983134;28;20192;-77
2021/10/13 08:25:08;;;;;;;7.30;5.03;;;9.40;99.90;;;;;;4983301;28;20215;-76
2021/10/13 08:27:33;;;;;;;9.57;5.67;;;9.30;99.90;;;;;;4983306;28;20196;-76
2021/10/13 08:29:59;;;;;;;8.97;5.57;;;9.40;99.90;;;;;;4983066;28;20188;-76
2021/10/13 08:32:25;;;;;;;9.63;6.70;;;9.40;99.90;;;;;;4983342;28;20293;-76
2021/10/13 08:34:50;;;;;;;8.33;6.47;;;9.40;99.90;;;;;;4983089;28;20294;-76
2021/10/13 08:37:16;;;;;;;7.73;5.73;;;9.40;99.90;;;;;;4983229;28;20399;-76
2021/10/13 08:39:42;;;;;;;7.53;5.33;;;9.40;99.90;;;;;;4981788;28;20184;-76
2021/10/13 08:42:07;;;;;;;8.90;5.30;;;9.60;99.90;;;;;;4982945;28;20224;-76
2021/10/13 08:44:34;;;;;;;7.37;5.13;;;9.70;99.90;;;;;;4983610;28;20350;-76
2021/10/13 08:47:00;;;;;;;7.27;5.20;;;9.80;99.90;;;;;;4983663;28;20184;-76
2021/10/13 08:49:25;;;;;;;7.93;5.07;;;10.00;99.90;;;;;;4985579;28;20554;-75
2021/10/13 08:51:51;;;;;;;7.60;5.57;;;10.00;99.90;;;;;;4984706;28;20745;-77
2021/10/13 08:54:18;;;;;;;8.17;5.03;;;10.00;99.90;;;;;;4984670;28;20256;-76
2021/10/13 08:56:47;;;;;;;7.43;4.70;;;10.00;99.90;;;;;;4987565;28;20207;-76
2021/10/13 08:59:42;;;;;;;8.17;5.30;;;10.10;99.90;;;;;;4987610;28;20235;-76
2021/10/13 09:02:10;;;;;;;7.80;4.80;;;10.30;99.90;;;;;;4981363;28;20192;-76
2021/10/13 09:04:35;;;;;;;6.87;5.20;;;10.40;99.90;;;;;;4988172;28;20223;-76
2021/10/13 09:07:02;;;;;;;7.90;4.93;;;10.50;99.90;;;;;;4989107;28;20212;-77
2021/10/13 09:09:28;;;;;;;7.97;5.60;;;10.40;99.90;;;;;;4987778;28;20544;-76
2021/10/13 09:11:54;;;;;;;9.40;5.17;;;10.60;99.90;;;;;;4986534;28;20196;-77
2021/10/13 09:14:25;;;;;;;7.03;5.57;;;10.70;99.90;;;;;;4988814;28;20217;-77
2021/10/13 09:17:07;;;;;;;6.03;4.87;;;10.70;99.90;;;;;;4989054;28;20636;-76
2021/10/13 09:19:49;;;;;;;8.10;5.30;;;10.60;99.90;;;;;;4989226;28;20195;-76
2021/10/13 09:22:15;;;;;;;6.23;4.97;;;10.50;99.90;;;;;;4988787;28;20188;-76
2021/10/13 09:24:46;;;;;;;7.13;4.90;;;10.70;99.90;;;;;;4986446;28;20184;-76
2021/10/13 09:27:31;;;;;;;7.33;4.90;;;10.80;99.90;;;;;;4985643;28;20238;-76
2021/10/13 09:30:00;;;;;;;7.60;5.27;;;10.70;99.90;;;;;;4986278;28;20184;-76
2021/10/13 09:32:26;;;;;;;6.53;4.50;;;10.90;99.90;;;;;;4985496;28;20287;-75
2021/10/13 09:34:54;;;;;;;6.03;4.35;;;11.10;99.90;;;;;;4986400;28;20346;-76
2021/10/13 09:37:21;;;;;;;4.57;3.90;;;11.00;99.90;;;;;;5000778;28;20851;-76
2021/10/13 09:40:02;;;;;;;5.50;4.07;;;11.00;99.90;;;;;;4985955;28;20224;-76
2021/10/13 09:42:36;;;;;;;6.60;4.40;;;11.10;99.90;;;;;;4986194;28;20246;-77
2021/10/13 09:45:02;;;;;;;4.40;3.97;;;11.20;99.90;;;;;;4986153;28;20224;-76
2021/10/13 09:47:34;;;;;;;4.97;4.43;;;11.40;99.90;;;;;;4984922;28;20214;-76
2021/10/13 09:50:06;;;;;;;6.50;4.78;;;11.30;99.90;;;;;;4986099;28;20749;-76
2021/10/13 09:52:31;;;;;;;6.72;4.82;;;11.30;99.90;;;;;;4986169;28;20274;-76
2021/10/13 09:55:09;;;;;;;6.05;4.53;;;11.20;99.90;;;;;;4985854;28;20620;-76
2021/10/13 09:57:42;;;;;;;7.22;4.65;;;11.10;99.90;;;;;;4985824;28;20191;-76
2021/10/13 10:00:12;;;;;;;8.25;4.80;;;11.00;99.90;;;;;;4986127;28;20227;-76
2021/10/13 10:02:39;;;;;;;4.88;4.18;;;10.90;99.90;;;;;;4986002;28;20188;-77
2021/10/13 10:05:11;;;;;;;4.35;3.95;;;10.80;99.90;;;;;;4984272;28;20212;-77
2021/10/13 10:07:46;;;;;;;4.55;3.88;;;10.90;99.90;;;;;;4984849;28;20200;-76
2021/10/13 10:10:16;;;;;;;5.60;4.28;;;11.20;99.90;;;;;;4985897;28;20550;-76
2021/10/13 10:12:57;;;;;;;4.60;3.90;;;11.40;99.90;;;;;;4985911;28;20232;-76
2021/10/13 10:15:33;;;;;;;5.70;4.53;;;11.40;99.90;;;;;;4985493;28;20208;-76
2021/10/13 10:17:59;;;;;;;5.18;4.60;;;11.30;99.90;;;;;;4986012;28;20334;-76
2021/10/13 10:20:36;;;;;;;4.57;3.42;;;11.40;99.90;;;;;;4985230;28;20185;-77
2021/10/13 10:23:22;;;;;;;5.47;3.55;;;11.60;99.90;;;;;;4984494;28;20211;-76
2021/10/13 10:25:48;;;;;;;5.05;2.92;;;11.60;99.90;;;;;;4985354;28;20580;-76
2021/10/13 10:28:50;;;;;;;2.95;2.65;;;11.60;99.90;;;;;;4985629;28;20200;-77
2021/10/13 10:31:28;;;;;;;2.78;2.58;;;11.50;99.90;;;;;;4985721;28;20184;-76
2021/10/13 10:34:03;;;;;;;2.90;2.60;;;11.50;99.90;;;;;;4985346;28;20315;-76
2021/10/13 10:36:34;;;;;;;3.78;2.70;;;11.60;99.90;;;;;;4985671;28;20713;-76
2021/10/13 10:39:00;;;;;;;4.15;3.00;;;11.70;99.90;;;;;;4984805;28;20181;-77
2021/10/13 10:41:45;;;;;;;5.10;2.58;;;11.90;99.90;;;;;;5001622;28;20177;-80
2021/10/13 10:44:33;;;;;;;5.63;3.50;;;11.90;99.90;;;;;;4986538;28;20873;-77
2021/10/13 10:47:02;;;;;;;3.50;3.10;;;11.80;99.90;;;;;;4988554;28;20172;-77
2021/10/13 10:49:46;;;;;;;3.95;3.03;;;11.80;99.90;;;;;;4985474;28;20207;-79
2021/10/13 10:52:15;;;;;;;5.72;3.08;;;11.90;99.90;;;;;;4985719;28;20315;-77
2021/10/13 10:54:50;;;;;;;3.35;2.67;;;12.00;99.90;;;;;;4985042;28;20517;-77
2021/10/13 10:57:36;;;;;;;3.03;2.55;;;12.00;99.90;;;;;;4983847;28;20417;-76
2021/10/13 11:00:08;;;;;;;3.72;2.65;;;12.00;99.90;;;;;;4977650;28;20188;-78
2021/10/13 11:02:35;;;;;;;4.95;2.38;;;12.10;99.90;;;;;;4983468;28;20653;-78
2021/10/13 11:05:10;;;;;;;3.80;2.05;;;12.30;99.90;;;;;;4983826;28;20227;-78
2021/10/13 11:07:37;;;;;;;3.63;2.35;;;12.30;99.90;;;;;;4985091;28;20386;-78
2021/10/13 11:10:11;;;;;;;2.25;1.98;;;12.20;99.90;;;;;;4984650;28;20276;-78
2021/10/13 11:12:47;;;;;;;2.53;1.90;;;12.20;99.90;;;;;;4982974;28;20239;-78
2021/10/13 11:15:13;;;;;;;4.65;2.33;;;12.30;99.90;;;;;;4983463;28;20200;-78
2021/10/13 11:17:39;;;;;;;3.53;2.13;;;12.40;99.90;;;;;;4983119;28;20267;-78
2021/10/13 11:20:12;;;;;;;2.83;2.28;;;12.50;99.90;;;;;;4984092;28;20693;-78
2021/10/13 11:22:38;;;;;;;4.03;2.28;;;12.40;99.90;;;;;;4983200;28;20192;-77
2021/10/13 11:25:15;;;;;;;4.50;2.10;;;12.40;99.90;;;;;;4984810;28;20591;-78
2021/10/13 11:27:41;;;;;;;2.90;1.83;;;12.40;99.90;;;;;;4984595;28;20263;-78
2021/10/13 11:30:17;;;;;;;2.40;1.83;;;12.40;99.90;;;;;;4984669;28;20950;-78
2021/10/13 11:32:43;;;;;;;1.67;1.58;;;12.50;99.90;;;;;;4984059;28;20219;-78
2021/10/13 11:35:09;;;;;;;4.13;1.90;;;12.40;99.90;;;;;;4982867;28;20200;-78
2021/10/13 11:37:35;;;;;;;3.70;1.70;;;12.30;99.90;;;;;;4984760;28;20180;-79
2021/10/13 11:40:01;;;;;;;4.00;1.90;;;12.20;99.90;;;;;;4984091;28;20200;-78
2021/10/13 11:42:28;;;;;;;3.00;2.03;;;12.10;99.90;;;;;;4984858;28;20195;-78
2021/10/13 11:44:57;;;;;;;1.95;1.52;;;12.30;99.90;;;;;;4984416;28;20230;-78
2021/10/13 11:47:34;;;;;;;2.75;1.50;;;12.50;99.90;;;;;;4983868;28;20600;-78
2021/10/13 11:50:01;;;;;;;4.47;1.63;;;12.60;99.90;;;;;;4985020;28;20192;-78
2021/10/13 11:52:27;;;;;;;1.75;1.50;;;12.70;99.90;;;;;;5000998;28;20212;-78
2021/10/13 11:55:20;;;;;;;2.00;1.63;;;12.90;99.90;;;;;;4986961;28;20214;-78
2021/10/13 11:58:00;;;;;;;2.40;1.10;;;13.10;99.90;;;;;;4991666;28;20262;-76
2021/10/13 12:00:30;;;;;;;3.22;1.95;;;13.10;99.90;;;;;;4992225;28;20191;-78
2021/10/13 12:03:10;;;;;;;3.22;1.70;;;13.20;99.90;;;;;;4984362;28;20546;-79
2021/10/13 12:05:50;;;;;;;2.65;1.50;;;13.20;99.90;;;;;;4982473;28;20693;-78
2021/10/13 12:08:28;;;;;;;2.70;1.45;;;13.20;99.90;;;;;;4982865;28;20195;-77
2021/10/13 12:11:07;;;;;;;1.70;1.40;;;13.30;99.90;;;;;;4983793;28;20179;-78
2021/10/13 12:13:35;;;;;;;2.10;1.15;;;13.20;99.90;;;;;;4998840;28;20716;-76
2021/10/13 12:16:04;;;;;;;5.55;1.70;;;13.20;99.90;;;;;;4983898;28;20282;-78
2021/10/13 12:18:35;;;;;;;3.05;1.60;;;13.30;99.90;;;;;;4983795;28;20234;-79
2021/10/13 12:21:08;;;;;;;2.15;1.13;;;13.30;99.90;;;;;;4982179;28;20398;-79
2021/10/13 12:23:45;;;;;;;1.75;1.20;;;13.40;99.90;;;;;;4983322;28;20230;-79
2021/10/13 12:26:18;;;;;;;5.30;1.00;;;13.60;99.90;;;;;;4983802;28;20580;-78
2021/10/13 12:28:46;;;;;;;3.33;1.40;;;13.90;99.90;;;;;;4983404;28;20336;-79
2021/10/13 12:31:17;;;;;;;1.10;0.82;;;14.10;99.90;;;;;;4982275;28;20196;-79
2021/10/13 12:33:45;;;;;;;2.05;1.00;;;14.20;99.90;;;;;;4982322;28;20200;-79
2021/10/13 12:36:15;;;;;;;0.80;0.77;;;14.00;99.90;;;;;;4983813;28;20231;-79
2021/10/13 12:39:03;;;;;;;2.92;1.02;;;14.00;99.90;;;;;;4982371;28;20180;-79
2021/10/13 12:41:35;;;;;;;1.30;0.70;;;14.10;99.90;;;;;;4992035;28;20662;-80
2021/10/13 12:44:23;;;;;;;1.40;0.80;;;13.90;99.90;;;;;;4982236;28;20200;-82
2021/10/13 12:46:57;;;;;;;2.03;1.10;;;13.60;99.90;;;;;;4983970;28;20208;-79
2021/10/13 12:49:25;;;;;;;1.35;0.80;;;13.30;99.90;;;;;;4984016;28;20191;-82
2021/10/13 12:51:51;;;;;;;2.55;0.80;;;13.10;99.90;;;;;;4983691;28;20734;-79
2021/10/13 12:54:17;;;;;;;2.08;1.23;;;12.90;99.90;;;;;;4984209;28;20299;-79
2021/10/13 12:56:42;;;;;;;2.33;0.82;;;12.80;99.90;;;;;;4984203;28;20630;-80